sensor_id;sensor_type;location;lat;lon;timestamp;pressure;altitude;pressure_sealevel;temperature
70435;BMP280;57876;47.792;12.960;2022-09-09T00:00:19;96712.69;;;18.80
70435;BMP280;57876;47.792;12.960;2022-09-09T00:02:54;96721.06;;;18.82
70435;BMP280;57876;47.792;12.960;2022-09-09T00:21:14;96693.34;;;18.78
70435;BMP280;57876;47.792;12.960;2022-09-09T00:33:49;96689.88;;;18.78
70435;BMP280;57876;47.792;12.960;2022-09-09T00:36:17;96689.16;;;18.77
70435;BMP280;57876;47.792;12.960;2022-09-09T00:38:48;96695.38;;;18.78
70435;BMP280;57876;47.792;12.960;2022-09-09T00:43:57;96690.59;;;18.78
70435;BMP280;57876;47.792;12.960;2022-09-09T00:57:07;96685.84;;;18.79
70435;BMP280;57876;47.792;12.960;2022-09-09T00:59:49;96682.38;;;18.78
70435;BMP280;57876;47.792;12.960;2022-09-09T01:02:39;96685.13;;;18.78
70435;BMP280;57876;47.792;12.960;2022-09-09T01:05:13;96685.84;;;18.79
70435;BMP280;57876;47.792;12.960;2022-09-09T01:07:44;96685.13;;;18.78
70435;BMP280;57876;47.792;12.960;2022-09-09T01:10:24;96682.38;;;18.78
70435;BMP280;57876;47.792;12.960;2022-09-09T01:12:51;96680.38;;;18.79
70435;BMP280;57876;47.792;12.960;2022-09-09T01:15:21;96682.38;;;18.78
70435;BMP280;57876;47.792;12.960;2022-09-09T01:20:31;96676.88;;;18.78
70435;BMP280;57876;47.792;12.960;2022-09-09T01:23:28;96683.81;;;18.79
70435;BMP280;57876;47.792;12.960;2022-09-09T01:26:10;96683.13;;;18.79
70435;BMP280;57876;47.792;12.960;2022-09-09T01:28:37;96685.13;;;18.78
70435;BMP280;57876;47.792;12.960;2022-09-09T01:31:07;96682.38;;;18.78
70435;BMP280;57876;47.792;12.960;2022-09-09T01:33:33;96685.13;;;18.78
70435;BMP280;57876;47.792;12.960;2022-09-09T01:36:06;96676.19;;;18.78
70435;BMP280;57876;47.792;12.960;2022-09-09T01:38:32;96681.66;;;18.78
70435;BMP280;57876;47.792;12.960;2022-09-09T01:40:58;96676.88;;;18.78
70435;BMP280;57876;47.792;12.960;2022-09-09T01:43:23;96683.66;;;18.77
70435;BMP280;57876;47.792;12.960;2022-09-09T01:45:51;96678.91;;;18.78
70435;BMP280;57876;47.792;12.960;2022-09-09T01:48:18;96688.47;;;18.77
70435;BMP280;57876;47.792;12.960;2022-09-09T01:50:43;96692.63;;;18.78
70435;BMP280;57876;47.792;12.960;2022-09-09T01:53:07;96691.88;;;18.77
70435;BMP280;57876;47.792;12.960;2022-09-09T01:55:39;96682.25;;;18.76
70435;BMP280;57876;47.792;12.960;2022-09-09T02:00:43;96675.31;;;18.75
70435;BMP280;57876;47.792;12.960;2022-09-09T02:03:20;96678.06;;;18.75
70435;BMP280;57876;47.792;12.960;2022-09-09T02:06:13;96680.09;;;18.75
70435;BMP280;57876;47.792;12.960;2022-09-09T02:08:41;96686.88;;;18.74
70435;BMP280;57876;47.792;12.960;2022-09-09T02:11:24;96687.56;;;18.74
70435;BMP280;57876;47.792;12.960;2022-09-09T02:13:52;96682.66;;;18.73
70435;BMP280;57876;47.792;12.960;2022-09-09T02:16:51;96689.59;;;18.74
70435;BMP280;57876;47.792;12.960;2022-09-09T02:19:26;96681.97;;;18.72
70435;BMP280;57876;47.792;12.960;2022-09-09T02:21:53;96688.88;;;18.73
70435;BMP280;57876;47.792;12.960;2022-09-09T02:24:19;96685.41;;;18.73
70435;BMP280;57876;47.792;12.960;2022-09-09T02:26:46;96692.19;;;18.72
70435;BMP280;57876;47.792;12.960;2022-09-09T02:29:16;96702.56;;;18.73
70435;BMP280;57876;47.792;12.960;2022-09-09T02:31:44;96692.19;;;18.72
70435;BMP280;57876;47.792;12.960;2022-09-09T02:34:10;96697.09;;;18.73
70435;BMP280;57876;47.792;12.960;2022-09-09T02:36:36;96701.84;;;18.73
70435;BMP280;57876;47.792;12.960;2022-09-09T02:39:05;96707.31;;;18.73
70435;BMP280;57876;47.792;12.960;2022-09-09T02:41:33;96702.56;;;18.73
70435;BMP280;57876;47.792;12.960;2022-09-09T02:43:58;96714.28;;;18.74
70435;BMP280;57876;47.792;12.960;2022-09-09T02:49:09;96703.91;;;18.72
70435;BMP280;57876;47.792;12.960;2022-09-09T02:56:52;96689.47;;;18.72
70435;BMP280;57876;47.792;12.960;2022-09-09T02:59:18;96683.97;;;18.72
70435;BMP280;57876;47.792;12.960;2022-09-09T03:01:42;96689.47;;;18.72
70435;BMP280;57876;47.792;12.960;2022-09-09T03:04:08;96692.94;;;18.72
70435;BMP280;57876;47.792;12.960;2022-09-09T03:06:33;96683.28;;;18.71
70435;BMP280;57876;47.792;12.960;2022-09-09T03:08:57;96686.00;;;18.71
70435;BMP280;57876;47.792;12.960;2022-09-09T03:11:24;96677.06;;;18.71
70435;BMP280;57876;47.792;12.960;2022-09-09T03:13:48;96671.56;;;18.71
70435;BMP280;57876;47.792;12.960;2022-09-09T03:16:13;96689.31;;;18.70
70435;BMP280;57876;47.792;12.960;2022-09-09T03:18:39;96689.31;;;18.70
70435;BMP280;57876;47.792;12.960;2022-09-09T03:21:03;96694.06;;;18.69
70435;BMP280;57876;47.792;12.960;2022-09-09T03:23:27;96696.81;;;18.69
70435;BMP280;57876;47.792;12.960;2022-09-09T03:25:52;96697.53;;;18.70
70435;BMP280;57876;47.792;12.960;2022-09-09T03:28:19;96702.31;;;18.69
70435;BMP280;57876;47.792;12.960;2022-09-09T03:30:44;96707.03;;;18.69
70435;BMP280;57876;47.792;12.960;2022-09-09T03:33:09;96700.84;;;18.68
70435;BMP280;57876;47.792;12.960;2022-09-09T03:35:33;96691.94;;;18.68
70435;BMP280;57876;47.792;12.960;2022-09-09T03:37:57;96691.22;;;18.67
70435;BMP280;57876;47.792;12.960;2022-09-09T03:40:22;96686.28;;;18.66
70435;BMP280;57876;47.792;12.960;2022-09-09T03:42:46;96686.28;;;18.66
70435;BMP280;57876;47.792;12.960;2022-09-09T03:45:12;96688.28;;;18.65
70435;BMP280;57876;47.792;12.960;2022-09-09T03:47:36;96678.81;;;18.67
70435;BMP280;57876;47.792;12.960;2022-09-09T03:50:01;96672.59;;;18.66
70435;BMP280;57876;47.792;12.960;2022-09-09T03:52:25;96673.31;;;18.67
70435;BMP280;57876;47.792;12.960;2022-09-09T03:54:50;96674.59;;;18.65
70435;BMP280;57876;47.792;12.960;2022-09-09T03:57:15;96671.13;;;18.65
70435;BMP280;57876;47.792;12.960;2022-09-09T03:59:40;96666.38;;;18.65
70435;BMP280;57876;47.792;12.960;2022-09-09T04:02:05;96674.59;;;18.65
70435;BMP280;57876;47.792;12.960;2022-09-09T04:04:29;96669.84;;;18.66
70435;BMP280;57876;47.792;12.960;2022-09-09T04:06:54;96669.09;;;18.65
70435;BMP280;57876;47.792;12.960;2022-09-09T04:09:19;96663.63;;;18.65
70435;BMP280;57876;47.792;12.960;2022-09-09T04:11:43;96670.41;;;18.64
70435;BMP280;57876;47.792;12.960;2022-09-09T04:14:08;96671.13;;;18.65
70435;BMP280;57876;47.792;12.960;2022-09-09T04:16:33;96666.38;;;18.65
70435;BMP280;57876;47.792;12.960;2022-09-09T04:18:58;96666.38;;;18.65
70435;BMP280;57876;47.792;12.960;2022-09-09T04:21:24;96660.88;;;18.65
70435;BMP280;57876;47.792;12.960;2022-09-09T04:23:48;96665.66;;;18.65
70435;BMP280;57876;47.792;12.960;2022-09-09T04:26:12;96669.09;;;18.65
70435;BMP280;57876;47.792;12.960;2022-09-09T04:28:37;96667.09;;;18.66
70435;BMP280;57876;47.792;12.960;2022-09-09T04:31:15;96673.88;;;18.65
70435;BMP280;57876;47.792;12.960;2022-09-09T04:33:41;96667.66;;;18.64
70435;BMP280;57876;47.792;12.960;2022-09-09T04:36:06;96670.41;;;18.64
70435;BMP280;57876;47.792;12.960;2022-09-09T04:38:31;96671.13;;;18.65
70435;BMP280;57876;47.792;12.960;2022-09-09T04:40:55;96664.94;;;18.64
70435;BMP280;57876;47.792;12.960;2022-09-09T04:43:21;96662.38;;;18.67
70435;BMP280;57876;47.792;12.960;2022-09-09T04:45:47;96665.09;;;18.67
70435;BMP280;57876;47.792;12.960;2022-09-09T04:48:12;96661.63;;;18.66
70435;BMP280;57876;47.792;12.960;2022-09-09T04:50:36;96658.88;;;18.66
70435;BMP280;57876;47.792;12.960;2022-09-09T04:53:04;96658.16;;;18.65
70435;BMP280;57876;47.792;12.960;2022-09-09T04:55:29;96667.09;;;18.66
70435;BMP280;57876;47.792;12.960;2022-09-09T04:57:54;96665.09;;;18.67
70435;BMP280;57876;47.792;12.960;2022-09-09T05:00:18;96660.88;;;18.65
70435;BMP280;57876;47.792;12.960;2022-09-09T05:02:43;96660.88;;;18.65
70435;BMP280;57876;47.792;12.960;2022-09-09T05:05:07;96657.44;;;18.65
70435;BMP280;57876;47.792;12.960;2022-09-09T05:07:32;96660.88;;;18.65
70435;BMP280;57876;47.792;12.960;2022-09-09T05:09:57;96653.97;;;18.64
70435;BMP280;57876;47.792;12.960;2022-09-09T05:12:21;96660.88;;;18.65
70435;BMP280;57876;47.792;12.960;2022-09-09T05:14:46;96658.16;;;18.65
70435;BMP280;57876;47.792;12.960;2022-09-09T05:17:10;96657.44;;;18.65
70435;BMP280;57876;47.792;12.960;2022-09-09T05:19:35;96664.38;;;18.66
70435;BMP280;57876;47.792;12.960;2022-09-09T05:21:59;96665.09;;;18.67
70435;BMP280;57876;47.792;12.960;2022-09-09T05:24:25;96650.66;;;18.66
70435;BMP280;57876;47.792;12.960;2022-09-09T05:26:49;96663.63;;;18.65
70435;BMP280;57876;47.792;12.960;2022-09-09T05:29:14;96660.88;;;18.65
70435;BMP280;57876;47.792;12.960;2022-09-09T05:31:38;96652.66;;;18.65
70435;BMP280;57876;47.792;12.960;2022-09-09T05:34:03;96652.66;;;18.65
70435;BMP280;57876;47.792;12.960;2022-09-09T05:36:27;96658.16;;;18.65
70435;BMP280;57876;47.792;12.960;2022-09-09T05:38:52;96652.66;;;18.65
70435;BMP280;57876;47.792;12.960;2022-09-09T05:41:19;96667.84;;;18.67
70435;BMP280;57876;47.792;12.960;2022-09-09T05:43:44;96668.56;;;18.67
70435;BMP280;57876;47.792;12.960;2022-09-09T05:46:27;96668.56;;;18.67
70435;BMP280;57876;47.792;12.960;2022-09-09T05:48:52;96664.53;;;18.68
70435;BMP280;57876;47.792;12.960;2022-09-09T05:51:22;96665.09;;;18.67
70435;BMP280;57876;47.792;12.960;2022-09-09T05:53:48;96653.41;;;18.66
70435;BMP280;57876;47.792;12.960;2022-09-09T05:56:15;96665.09;;;18.67
70435;BMP280;57876;47.792;12.960;2022-09-09T05:58:40;96663.81;;;18.67
70435;BMP280;57876;47.792;12.960;2022-09-09T06:01:10;96660.34;;;18.67
70435;BMP280;57876;47.792;12.960;2022-09-09T06:03:36;96661.78;;;18.68
70435;BMP280;57876;47.792;12.960;2022-09-09T06:06:02;96650.81;;;18.68
70435;BMP280;57876;47.792;12.960;2022-09-09T06:08:29;96653.56;;;18.68
70435;BMP280;57876;47.792;12.960;2022-09-09T06:10:53;96657.00;;;18.68
70435;BMP280;57876;47.792;12.960;2022-09-09T06:13:26;96666.69;;;18.69
70435;BMP280;57876;47.792;12.960;2022-09-09T06:15:53;96665.22;;;18.68
70435;BMP280;57876;47.792;12.960;2022-09-09T06:18:18;96669.41;;;18.69
70435;BMP280;57876;47.792;12.960;2022-09-09T06:20:42;96664.66;;;18.70
70435;BMP280;57876;47.792;12.960;2022-09-09T06:23:07;96664.66;;;18.70
70435;BMP280;57876;47.792;12.960;2022-09-09T06:25:31;96672.88;;;18.70
70435;BMP280;57876;47.792;12.960;2022-09-09T06:27:58;96677.63;;;18.69
70435;BMP280;57876;47.792;12.960;2022-09-09T06:30:22;96664.66;;;18.70
70435;BMP280;57876;47.792;12.960;2022-09-09T06:32:47;96650.94;;;18.70
70435;BMP280;57876;47.792;12.960;2022-09-09T06:35:11;96646.75;;;18.69
70435;BMP280;57876;47.792;12.960;2022-09-09T06:37:35;96642.72;;;18.70
70435;BMP280;57876;47.792;12.960;2022-09-09T06:40:01;96643.44;;;18.70
70435;BMP280;57876;47.792;12.960;2022-09-09T06:42:25;96648.19;;;18.70
70435;BMP280;57876;47.792;12.960;2022-09-09T06:44:50;96648.19;;;18.70
70435;BMP280;57876;47.792;12.960;2022-09-09T06:47:14;96655.72;;;18.69
70435;BMP280;57876;47.792;12.960;2022-09-09T06:49:38;96666.81;;;18.71
70435;BMP280;57876;47.792;12.960;2022-09-09T06:52:03;96657.88;;;18.71
70435;BMP280;57876;47.792;12.960;2022-09-09T06:54:27;96655.13;;;18.71
70435;BMP280;57876;47.792;12.960;2022-09-09T06:56:52;96646.19;;;18.70
70435;BMP280;57876;47.792;12.960;2022-09-09T06:59:17;96650.38;;;18.71
70435;BMP280;57876;47.792;12.960;2022-09-09T07:01:42;96656.56;;;18.72
70435;BMP280;57876;47.792;12.960;2022-09-09T07:04:15;96653.13;;;18.71
70435;BMP280;57876;47.792;12.960;2022-09-09T07:06:42;96663.34;;;18.71
70435;BMP280;57876;47.792;12.960;2022-09-09T07:09:12;96675.03;;;18.71
70435;BMP280;57876;47.792;12.960;2022-09-09T07:11:39;96668.81;;;18.71
70435;BMP280;57876;47.792;12.960;2022-09-09T07:14:05;96666.81;;;18.71
70435;BMP280;57876;47.792;12.960;2022-09-09T07:16:29;96683.97;;;18.72
70435;BMP280;57876;47.792;12.960;2022-09-09T07:18:55;96690.31;;;18.74
70435;BMP280;57876;47.792;12.960;2022-09-09T07:21:21;96690.88;;;18.73
70435;BMP280;57876;47.792;12.960;2022-09-09T07:23:46;96697.09;;;18.73
70435;BMP280;57876;47.792;12.960;2022-09-09T07:26:15;96686.88;;;18.74
70435;BMP280;57876;47.792;12.960;2022-09-09T07:28:40;96694.50;;;18.75
70435;BMP280;57876;47.792;12.960;2022-09-09T07:31:06;96695.81;;;18.74
70435;BMP280;57876;47.792;12.960;2022-09-09T07:33:32;96690.31;;;18.74
70435;BMP280;57876;47.792;12.960;2022-09-09T07:36:13;96690.31;;;18.74
70435;BMP280;57876;47.792;12.960;2022-09-09T07:38:43;96691.75;;;18.75
70435;BMP280;57876;47.792;12.960;2022-09-09T07:41:11;96697.25;;;18.75
70435;BMP280;57876;47.792;12.960;2022-09-09T07:43:36;96691.75;;;18.75
70435;BMP280;57876;47.792;12.960;2022-09-09T07:46:01;96700.00;;;18.75
70435;BMP280;57876;47.792;12.960;2022-09-09T07:48:25;96703.47;;;18.76
70435;BMP280;57876;47.792;12.960;2022-09-09T07:50:50;96702.72;;;18.75
70435;BMP280;57876;47.792;12.960;2022-09-09T07:53:15;96711.69;;;18.76
70435;BMP280;57876;47.792;12.960;2022-09-09T07:55:39;96715.88;;;18.77
70435;BMP280;57876;47.792;12.960;2022-09-09T07:58:04;96712.53;;;18.78
70435;BMP280;57876;47.792;12.960;2022-09-09T08:00:28;96714.56;;;18.78
70435;BMP280;57876;47.792;12.960;2022-09-09T08:02:53;96720.03;;;18.78
70435;BMP280;57876;47.792;12.960;2022-09-09T08:05:18;96722.19;;;18.79
70435;BMP280;57876;47.792;12.960;2022-09-09T08:07:42;96720.91;;;18.80
70435;BMP280;57876;47.792;12.960;2022-09-09T08:10:07;96734.59;;;18.80
70435;BMP280;57876;47.792;12.960;2022-09-09T08:12:31;96723.63;;;18.80
70435;BMP280;57876;47.792;12.960;2022-09-09T08:14:56;96721.63;;;18.81
70435;BMP280;57876;47.792;12.960;2022-09-09T08:17:20;96731.28;;;18.82
70435;BMP280;57876;47.792;12.960;2022-09-09T08:19:45;96726.53;;;18.82
70435;BMP280;57876;47.792;12.960;2022-09-09T08:22:09;96729.28;;;18.82
70435;BMP280;57876;47.792;12.960;2022-09-09T08:24:34;96732.72;;;18.83
70435;BMP280;57876;47.792;12.960;2022-09-09T08:26:59;96740.94;;;18.83
70435;BMP280;57876;47.792;12.960;2022-09-09T08:29:24;96742.25;;;18.82
70435;BMP280;57876;47.792;12.960;2022-09-09T08:31:53;96740.94;;;18.83
70435;BMP280;57876;47.792;12.960;2022-09-09T08:34:18;96744.44;;;18.83
70435;BMP280;57876;47.792;12.960;2022-09-09T08:36:45;96755.38;;;18.83
70435;BMP280;57876;47.792;12.960;2022-09-09T08:39:11;96758.84;;;18.84
70435;BMP280;57876;47.792;12.960;2022-09-09T08:42:08;96756.84;;;18.84
70435;BMP280;57876;47.792;12.960;2022-09-09T08:52:29;96747.44;;;18.87
70435;BMP280;57876;47.792;12.960;2022-09-09T08:54:57;96752.19;;;18.87
70435;BMP280;57876;47.792;12.960;2022-09-09T08:57:25;96741.97;;;18.87
70435;BMP280;57876;47.792;12.960;2022-09-09T08:59:50;96748.16;;;18.88
70435;BMP280;57876;47.792;12.960;2022-09-09T09:02:21;96750.34;;;18.89
70435;BMP280;57876;47.792;12.960;2022-09-09T09:10:48;96733.88;;;18.89
70435;BMP280;57876;47.792;12.960;2022-09-09T09:13:25;96737.38;;;18.90
70435;BMP280;57876;47.792;12.960;2022-09-09T09:15:56;96742.25;;;18.91
70435;BMP280;57876;47.792;12.960;2022-09-09T09:18:22;96741.53;;;18.91
70435;BMP280;57876;47.792;12.960;2022-09-09T09:23:32;96747.72;;;18.91
70435;BMP280;57876;47.792;12.960;2022-09-09T09:26:00;96751.91;;;18.92
70435;BMP280;57876;47.792;12.960;2022-09-09T09:28:27;96755.38;;;18.93
70435;BMP280;57876;47.792;12.960;2022-09-09T09:31:19;96747.88;;;18.93
70435;BMP280;57876;47.792;12.960;2022-09-09T09:33:48;96755.38;;;18.93
70435;BMP280;57876;47.792;12.960;2022-09-09T09:36:14;96767.81;;;18.94
70435;BMP280;57876;47.792;12.960;2022-09-09T09:39:02;96754.81;;;18.94
70435;BMP280;57876;47.792;12.960;2022-09-09T09:41:41;96756.84;;;18.94
70435;BMP280;57876;47.792;12.960;2022-09-09T09:44:23;96754.81;;;18.94
70435;BMP280;57876;47.792;12.960;2022-09-09T09:46:47;96761.59;;;18.93
70435;BMP280;57876;47.792;12.960;2022-09-09T09:49:12;96763.03;;;18.94
70435;BMP280;57876;47.792;12.960;2022-09-09T09:51:37;96765.06;;;18.94
70435;BMP280;57876;47.792;12.960;2022-09-09T09:54:15;96763.03;;;18.94
70435;BMP280;57876;47.792;12.960;2022-09-09T09:56:43;96760.28;;;18.94
70435;BMP280;57876;47.792;12.960;2022-09-09T09:59:34;96762.31;;;18.94
70435;BMP280;57876;47.792;12.960;2022-09-09T10:02:17;96745.88;;;18.94
70435;BMP280;57876;47.792;12.960;2022-09-09T10:04:42;96754.81;;;18.94
70435;BMP280;57876;47.792;12.960;2022-09-09T10:07:11;96754.81;;;18.94
70435;BMP280;57876;47.792;12.960;2022-09-09T10:09:36;96750.63;;;18.93
70435;BMP280;57876;47.792;12.960;2022-09-09T10:18:04;96762.31;;;18.94
70435;BMP280;57876;47.792;12.960;2022-09-09T10:27:15;96763.19;;;18.96
70435;BMP280;57876;47.792;12.960;2022-09-09T10:35:17;96741.97;;;18.97
70435;BMP280;57876;47.792;12.960;2022-09-09T10:43:30;96752.22;;;18.96
70435;BMP280;57876;47.792;12.960;2022-09-09T10:51:40;96766.06;;;18.98
70435;BMP280;57876;47.792;12.960;2022-09-09T10:57:03;96760.72;;;19.00
70435;BMP280;57876;47.792;12.960;2022-09-09T10:59:33;96762.72;;;19.00
70435;BMP280;57876;47.792;12.960;2022-09-09T11:02:16;96763.47;;;19.00
70435;BMP280;57876;47.792;12.960;2022-09-09T11:05:16;96771.09;;;19.02
70435;BMP280;57876;47.792;12.960;2022-09-09T11:10:25;96775.28;;;19.03
70435;BMP280;57876;47.792;12.960;2022-09-09T11:15:42;96779.63;;;19.06
70435;BMP280;57876;47.792;12.960;2022-09-09T11:18:15;96785.81;;;19.06
70435;BMP280;57876;47.792;12.960;2022-09-09T11:20:43;96791.31;;;19.06
70435;BMP280;57876;47.792;12.960;2022-09-09T11:23:13;96797.53;;;19.07
70435;BMP280;57876;47.792;12.960;2022-09-09T11:25:47;96799.66;;;19.08
70435;BMP280;57876;47.792;12.960;2022-09-09T11:28:17;96788.00;;;19.08
70435;BMP280;57876;47.792;12.960;2022-09-09T11:41:49;96780.63;;;19.10
70435;BMP280;57876;47.792;12.960;2022-09-09T11:44:19;96777.88;;;19.10
70435;BMP280;57876;47.792;12.960;2022-09-09T11:46:50;96786.84;;;19.11
70435;BMP280;57876;47.792;12.960;2022-09-09T11:49:28;96777.16;;;19.10
70435;BMP280;57876;47.792;12.960;2022-09-09T11:51:53;96775.88;;;19.11
70435;BMP280;57876;47.792;12.960;2022-09-09T11:54:29;96783.38;;;19.10
70435;BMP280;57876;47.792;12.960;2022-09-09T11:56:54;96795.19;;;19.13
70435;BMP280;57876;47.792;12.960;2022-09-09T12:01:54;96797.22;;;19.12
70435;BMP280;57876;47.792;12.960;2022-09-09T12:04:39;96797.22;;;19.12
70435;BMP280;57876;47.792;12.960;2022-09-09T12:19:38;96821.75;;;19.10
70435;BMP280;57876;47.792;12.960;2022-09-09T12:22:09;96819.00;;;19.10
70435;BMP280;57876;47.792;12.960;2022-09-09T12:25:23;96812.81;;;19.10
70435;BMP280;57876;47.792;12.960;2022-09-09T12:30:31;96825.09;;;19.09
70435;BMP280;57876;47.792;12.960;2022-09-09T12:33:15;96823.03;;;19.09
70435;BMP280;57876;47.792;12.960;2022-09-09T12:35:42;96816.13;;;19.08
70435;BMP280;57876;47.792;12.960;2022-09-09T12:38:13;96818.84;;;19.08
70435;BMP280;57876;47.792;12.960;2022-09-09T12:40:39;96809.94;;;19.08
70435;BMP280;57876;47.792;12.960;2022-09-09T12:43:20;96807.88;;;19.08
70435;BMP280;57876;47.792;12.960;2022-09-09T12:45:45;96807.22;;;19.08
70435;BMP280;57876;47.792;12.960;2022-09-09T12:48:11;96807.06;;;19.06
70435;BMP280;57876;47.792;12.960;2022-09-09T12:50:45;96811.25;;;19.07
70435;BMP280;57876;47.792;12.960;2022-09-09T12:53:17;96813.25;;;19.06
70435;BMP280;57876;47.792;12.960;2022-09-09T12:56:18;96821.47;;;19.06
70435;BMP280;57876;47.792;12.960;2022-09-09T12:58:45;96827.69;;;19.07
70435;BMP280;57876;47.792;12.960;2022-09-09T13:01:20;96823.50;;;19.06
70435;BMP280;57876;47.792;12.960;2022-09-09T13:03:45;96826.81;;;19.04
70435;BMP280;57876;47.792;12.960;2022-09-09T13:06:12;96823.34;;;19.04
70435;BMP280;57876;47.792;12.960;2022-09-09T13:08:38;96823.34;;;19.04
70435;BMP280;57876;47.792;12.960;2022-09-09T13:11:07;96816.41;;;19.03
70435;BMP280;57876;47.792;12.960;2022-09-09T13:13:40;96812.97;;;19.02
70435;BMP280;57876;47.792;12.960;2022-09-09T13:16:06;96817.72;;;19.02
70435;BMP280;57876;47.792;12.960;2022-09-09T13:18:41;96810.78;;;19.01
70435;BMP280;57876;47.792;12.960;2022-09-09T13:21:06;96812.81;;;19.00
70435;BMP280;57876;47.792;12.960;2022-09-09T13:23:33;96815.56;;;19.00
70435;BMP280;57876;47.792;12.960;2022-09-09T13:26:04;96813.41;;;18.99
70435;BMP280;57876;47.792;12.960;2022-09-09T13:28:31;96808.63;;;18.99
70435;BMP280;57876;47.792;12.960;2022-09-09T13:33:23;96802.44;;;18.99
70435;BMP280;57876;47.792;12.960;2022-09-09T13:35:51;96788.00;;;18.98
70435;BMP280;57876;47.792;12.960;2022-09-09T13:38:17;96788.72;;;18.99
70435;BMP280;57876;47.792;12.960;2022-09-09T13:40:56;96795.50;;;18.98
70435;BMP280;57876;47.792;12.960;2022-09-09T13:43:23;96789.31;;;18.97
70435;BMP280;57876;47.792;12.960;2022-09-09T13:48:59;96789.31;;;18.97
70435;BMP280;57876;47.792;12.960;2022-09-09T13:51:34;96793.34;;;18.96
70435;BMP280;57876;47.792;12.960;2022-09-09T13:54:01;96792.59;;;18.96
70435;BMP280;57876;47.792;12.960;2022-09-09T13:56:25;96790.59;;;18.96
70435;BMP280;57876;47.792;12.960;2022-09-09T13:58:49;96797.34;;;18.95
70435;BMP280;57876;47.792;12.960;2022-09-09T14:01:14;96791.88;;;18.95
70435;BMP280;57876;47.792;12.960;2022-09-09T14:03:38;96791.16;;;18.95
70435;BMP280;57876;47.792;12.960;2022-09-09T14:06:03;96784.97;;;18.94
70435;BMP280;57876;47.792;12.960;2022-09-09T14:08:27;96789.75;;;18.94
70435;BMP280;57876;47.792;12.960;2022-09-09T14:11:00;96785.53;;;18.93
70435;BMP280;57876;47.792;12.960;2022-09-09T14:13:25;96785.66;;;18.95
70435;BMP280;57876;47.792;12.960;2022-09-09T14:15:49;96776.59;;;18.92
70435;BMP280;57876;47.792;12.960;2022-09-09T14:18:14;96786.84;;;18.92
70435;BMP280;57876;47.792;12.960;2022-09-09T14:20:38;96788.84;;;18.91
70435;BMP280;57876;47.792;12.960;2022-09-09T14:23:03;96779.91;;;18.91
70435;BMP280;57876;47.792;12.960;2022-09-09T14:25:27;96776.44;;;18.90
70435;BMP280;57876;47.792;12.960;2022-09-09T14:27:52;96781.22;;;18.90
70435;BMP280;57876;47.792;12.960;2022-09-09T14:30:17;96787.41;;;18.90
70435;BMP280;57876;47.792;12.960;2022-09-09T14:32:41;96788.00;;;18.89
70435;BMP280;57876;47.792;12.960;2022-09-09T14:35:06;96785.28;;;18.89
70435;BMP280;57876;47.792;12.960;2022-09-09T14:37:31;96787.28;;;18.88
70435;BMP280;57876;47.792;12.960;2022-09-09T14:39:55;96785.28;;;18.89
70435;BMP280;57876;47.792;12.960;2022-09-09T14:42:20;96787.28;;;18.88
70435;BMP280;57876;47.792;12.960;2022-09-09T14:44:45;96779.06;;;18.88
70435;BMP280;57876;47.792;12.960;2022-09-09T14:47:09;96773.56;;;18.88
70435;BMP280;57876;47.792;12.960;2022-09-09T14:49:35;96774.44;;;18.91
70435;BMP280;57876;47.792;12.960;2022-09-09T14:51:59;96770.28;;;18.90
70435;BMP280;57876;47.792;12.960;2022-09-09T14:54:24;96764.16;;;18.91
70435;BMP280;57876;47.792;12.960;2022-09-09T14:56:48;96760.13;;;18.92
70435;BMP280;57876;47.792;12.960;2022-09-09T14:59:13;96761.59;;;18.93
70435;BMP280;57876;47.792;12.960;2022-09-09T15:01:38;96763.63;;;18.93
70435;BMP280;57876;47.792;12.960;2022-09-09T15:04:04;96758.25;;;18.95
70435;BMP280;57876;47.792;12.960;2022-09-09T15:06:31;96754.22;;;18.96
70435;BMP280;57876;47.792;12.960;2022-09-09T15:08:57;96752.94;;;18.97
70435;BMP280;57876;47.792;12.960;2022-09-09T15:11:29;96748.88;;;18.98
70435;BMP280;57876;47.792;12.960;2022-09-09T15:13:54;96745.56;;;18.99
70435;BMP280;57876;47.792;12.960;2022-09-09T15:16:19;96749.63;;;18.98
70435;BMP280;57876;47.792;12.960;2022-09-09T15:18:45;96748.31;;;18.99
70435;BMP280;57876;47.792;12.960;2022-09-09T15:21:12;96744.28;;;19.00
70435;BMP280;57876;47.792;12.960;2022-09-09T15:23:36;96740.22;;;19.01
70435;BMP280;57876;47.792;12.960;2022-09-09T15:26:02;96737.50;;;19.01
70435;BMP280;57876;47.792;12.960;2022-09-09T15:28:26;96733.44;;;19.02
70435;BMP280;57876;47.792;12.960;2022-09-09T15:30:52;96729.97;;;19.02
70435;BMP280;57876;47.792;12.960;2022-09-09T15:33:17;96721.75;;;19.02
70435;BMP280;57876;47.792;12.960;2022-09-09T15:35:42;96723.19;;;19.03
70435;BMP280;57876;47.792;12.960;2022-09-09T15:38:06;96722.50;;;19.02
70435;BMP280;57876;47.792;12.960;2022-09-09T15:40:31;96709.47;;;19.03
70435;BMP280;57876;47.792;12.960;2022-09-09T15:42:59;96719.16;;;19.04
70435;BMP280;57876;47.792;12.960;2022-09-09T15:45:23;96720.59;;;19.05
70435;BMP280;57876;47.792;12.960;2022-09-09T15:47:47;96710.22;;;19.03
70435;BMP280;57876;47.792;12.960;2022-09-09T15:50:13;96709.63;;;19.05
70435;BMP280;57876;47.792;12.960;2022-09-09T15:52:37;96697.22;;;19.04
70435;BMP280;57876;47.792;12.960;2022-09-09T15:55:01;96704.16;;;19.05
70435;BMP280;57876;47.792;12.960;2022-09-09T15:57:26;96701.41;;;19.05
70435;BMP280;57876;47.792;12.960;2022-09-09T15:59:50;96704.41;;;19.09
70435;BMP280;57876;47.792;12.960;2022-09-09T16:02:15;96701.09;;;19.10
70435;BMP280;57876;47.792;12.960;2022-09-09T16:04:39;96700.38;;;19.10
70435;BMP280;57876;47.792;12.960;2022-09-09T16:07:05;96702.38;;;19.09
70435;BMP280;57876;47.792;12.960;2022-09-09T16:09:30;96700.38;;;19.10
70435;BMP280;57876;47.792;12.960;2022-09-09T16:11:59;96705.88;;;19.10
70435;BMP280;57876;47.792;12.960;2022-09-09T16:14:30;96695.47;;;19.08
70435;BMP280;57876;47.792;12.960;2022-09-09T16:16:58;96695.47;;;19.08
70435;BMP280;57876;47.792;12.960;2022-09-09T16:19:25;96694.78;;;19.08
70435;BMP280;57876;47.792;12.960;2022-09-09T16:21:49;96693.47;;;19.09